Time;durP1;ratioP1;P1;durP2;ratioP2;P2;SDS_P1;SDS_P2;PMS_P1;PMS_P2;Temp;Humidity;BMP_temperature;BMP_pressure;BME280_temperature;BME280_humidity;BME280_pressure;Samples;Min_cycle;Max_cycle;Signal;HPM_P1;HPM_P2
2022/03/04 00:02:11;;;;;;;13.20;7.23;;;9.10;71.20;;;;;;5040043;28;20230;-77
2022/03/04 00:04:42;;;;;;;12.00;7.87;;;9.10;71.30;;;;;;5042704;28;20202;-77
2022/03/04 00:07:11;;;;;;;12.33;7.00;;;9.00;71.40;;;;;;5043728;28;20202;-77
2022/03/04 00:09:39;;;;;;;13.43;8.10;;;9.00;71.60;;;;;;5043837;28;20210;-77
2022/03/04 00:12:09;;;;;;;14.27;7.77;;;9.00;71.40;;;;;;5042728;28;20209;-77
2022/03/04 00:14:38;;;;;;;13.40;7.67;;;9.00;71.50;;;;;;5042470;28;20585;-77
2022/03/04 00:17:06;;;;;;;13.23;7.50;;;9.00;71.30;;;;;;5042891;28;20222;-77
2022/03/04 00:19:36;;;;;;;14.67;8.23;;;9.00;71.30;;;;;;5043173;28;20265;-77
2022/03/04 00:22:06;;;;;;;14.70;7.67;;;9.00;71.50;;;;;;5042653;28;20209;-78
2022/03/04 00:24:34;;;;;;;13.63;7.67;;;9.00;71.90;;;;;;5042334;28;20199;-77
2022/03/04 00:27:03;;;;;;;14.97;8.23;;;9.00;71.60;;;;;;5039551;28;20195;-77
2022/03/04 00:29:31;;;;;;;13.43;8.00;;;9.00;71.60;;;;;;5041703;28;20225;-76
2022/03/04 00:31:59;;;;;;;14.13;8.87;;;9.00;71.90;;;;;;5042139;28;20201;-76
2022/03/04 00:34:30;;;;;;;15.47;8.23;;;9.00;71.90;;;;;;5040741;28;20790;-77
2022/03/04 00:36:59;;;;;;;13.37;8.07;;;9.00;72.00;;;;;;5041900;28;20214;-75
2022/03/04 00:39:28;;;;;;;15.20;8.17;;;9.00;71.90;;;;;;5046494;28;20203;-77
2022/03/04 00:41:56;;;;;;;14.10;8.27;;;9.00;72.00;;;;;;5046044;28;20203;-77
2022/03/04 00:44:24;;;;;;;15.90;8.50;;;9.00;72.10;;;;;;5046689;28;20209;-76
2022/03/04 00:46:53;;;;;;;14.07;8.60;;;8.90;72.00;;;;;;5046630;28;20187;-76
2022/03/04 00:49:21;;;;;;;15.03;8.23;;;8.90;72.10;;;;;;5045316;28;20206;-78
2022/03/04 00:51:49;;;;;;;13.53;8.50;;;8.90;72.10;;;;;;5044315;28;20208;-77
2022/03/04 00:54:19;;;;;;;14.07;9.03;;;8.90;72.10;;;;;;5046294;28;20199;-76
2022/03/04 00:56:47;;;;;;;15.13;9.10;;;8.90;72.10;;;;;;5045135;28;20703;-77
2022/03/04 00:59:16;;;;;;;15.20;8.77;;;8.90;72.30;;;;;;5045716;28;20653;-76
2022/03/04 01:01:44;;;;;;;15.47;8.93;;;8.90;72.50;;;;;;5042750;28;20643;-76
2022/03/04 01:04:13;;;;;;;12.93;8.43;;;8.90;72.40;;;;;;5044940;28;20230;-77
2022/03/04 01:06:41;;;;;;;14.70;8.50;;;8.90;72.30;;;;;;5045077;28;20203;-77
2022/03/04 01:09:10;;;;;;;15.23;8.97;;;8.90;72.30;;;;;;5046470;28;20213;-77
2022/03/04 01:11:39;;;;;;;16.20;9.07;;;8.90;72.50;;;;;;5045203;28;20771;-77
2022/03/04 01:14:08;;;;;;;16.20;9.50;;;8.90;72.50;;;;;;5045570;28;20667;-78
2022/03/04 01:16:37;;;;;;;14.67;8.90;;;8.90;72.90;;;;;;5047069;28;20206;-77
2022/03/04 01:19:05;;;;;;;17.00;10.00;;;8.90;73.30;;;;;;5046338;28;20735;-77
2022/03/04 01:21:34;;;;;;;20.60;10.20;;;8.90;73.00;;;;;;5044064;28;20211;-78
2022/03/04 01:24:02;;;;;;;14.27;9.10;;;8.90;73.10;;;;;;5044471;28;20676;-77
2022/03/04 01:26:31;;;;;;;15.57;9.50;;;8.80;72.90;;;;;;5045840;28;20198;-78
2022/03/04 01:29:00;;;;;;;16.50;9.27;;;8.90;72.90;;;;;;5044573;28;20795;-77
2022/03/04 01:31:29;;;;;;;16.50;9.73;;;8.90;72.90;;;;;;5042963;28;20198;-77
2022/03/04 01:33:57;;;;;;;16.63;9.73;;;8.90;72.90;;;;;;5044713;28;20264;-78
2022/03/04 01:36:27;;;;;;;15.37;8.87;;;8.90;72.90;;;;;;5046154;28;20199;-78
2022/03/04 01:38:56;;;;;;;15.50;8.63;;;8.90;73.00;;;;;;5044613;28;20211;-78
2022/03/04 01:41:24;;;;;;;15.30;9.00;;;8.90;73.00;;;;;;5044419;28;20198;-78
2022/03/04 01:43:52;;;;;;;17.47;9.60;;;8.90;72.90;;;;;;5045419;28;20194;-78
2022/03/04 01:46:29;;;;;;;15.27;9.67;;;8.90;73.00;;;;;;5044264;28;20254;-78
2022/03/04 01:48:58;;;;;;;15.17;9.37;;;8.90;73.20;;;;;;5045368;28;20216;-79
2022/03/04 01:51:26;;;;;;;15.43;9.57;;;8.90;73.00;;;;;;5044254;28;20760;-78
2022/03/04 01:53:54;;;;;;;15.80;9.83;;;8.90;73.00;;;;;;5045203;28;20214;-78
2022/03/04 01:56:24;;;;;;;15.50;9.53;;;8.90;73.00;;;;;;5044729;28;20611;-77
2022/03/04 01:58:53;;;;;;;16.63;9.73;;;8.90;73.00;;;;;;5042487;28;20264;-79
2022/03/04 02:01:22;;;;;;;16.03;10.03;;;8.90;73.00;;;;;;5045050;28;20217;-78
2022/03/04 02:03:51;;;;;;;14.73;9.00;;;8.90;73.00;;;;;;5042342;28;20231;-78
2022/03/04 02:06:20;;;;;;;16.30;10.00;;;8.90;73.00;;;;;;5044834;28;20186;-78
2022/03/04 02:08:48;;;;;;;17.67;9.90;;;8.90;73.90;;;;;;5044264;28;20208;-78
2022/03/04 02:11:16;;;;;;;14.10;9.07;;;8.90;73.00;;;;;;5044841;28;20199;-78
2022/03/04 02:13:44;;;;;;;17.10;10.23;;;8.90;72.90;;;;;;5045622;28;20833;-78
2022/03/04 02:16:22;;;;;;;17.13;10.07;;;8.90;72.90;;;;;;5045584;28;20190;-77
2022/03/04 02:18:52;;;;;;;13.43;9.63;;;9.00;73.10;;;;;;5045322;28;20676;-77
2022/03/04 02:21:23;;;;;;;16.40;9.43;;;9.00;73.30;;;;;;5045932;28;20203;-79
2022/03/04 02:23:52;;;;;;;17.63;10.47;;;9.00;73.30;;;;;;5042093;28;20256;-77
2022/03/04 02:26:21;;;;;;;15.40;9.40;;;9.00;73.30;;;;;;5044876;28;20674;-77
2022/03/04 02:28:50;;;;;;;17.67;10.73;;;9.00;73.60;;;;;;5042682;28;20787;-78
2022/03/04 02:31:20;;;;;;;21.03;10.07;;;9.00;73.60;;;;;;5043478;28;20199;-78
2022/03/04 02:33:50;;;;;;;18.03;10.07;;;9.00;73.90;;;;;;5043231;28;20210;-77
2022/03/04 02:36:18;;;;;;;17.23;10.77;;;8.90;74.00;;;;;;5044008;28;20256;-77
2022/03/04 02:38:47;;;;;;;17.27;10.50;;;8.90;74.20;;;;;;5044125;28;20260;-78
2022/03/04 02:41:17;;;;;;;17.40;10.37;;;8.90;74.10;;;;;;5043644;28;20198;-77
2022/03/04 02:43:45;;;;;;;16.67;10.47;;;8.90;74.30;;;;;;5044493;28;20229;-77
2022/03/04 02:46:14;;;;;;;16.30;9.77;;;8.90;74.70;;;;;;5042733;28;20209;-78
2022/03/04 02:48:42;;;;;;;18.47;10.27;;;8.90;74.40;;;;;;5043257;28;20190;-77
2022/03/04 02:51:11;;;;;;;19.57;10.80;;;8.80;74.70;;;;;;5042287;28;20223;-78
2022/03/04 02:53:39;;;;;;;15.20;10.00;;;8.80;74.60;;;;;;5043932;28;20548;-78
2022/03/04 02:56:07;;;;;;;17.77;9.77;;;8.80;75.00;;;;;;5044185;28;20209;-77
2022/03/04 02:58:37;;;;;;;17.10;9.63;;;8.80;75.10;;;;;;5044457;28;20372;-78
2022/03/04 03:01:05;;;;;;;18.27;9.50;;;8.80;75.20;;;;;;5043776;28;20203;-78
2022/03/04 03:03:34;;;;;;;16.03;9.30;;;8.80;75.20;;;;;;5042935;28;20229;-77
2022/03/04 03:06:03;;;;;;;15.37;9.30;;;8.70;75.30;;;;;;5042655;28;20198;-78
2022/03/04 03:08:32;;;;;;;15.50;8.37;;;8.70;75.30;;;;;;5044286;28;20820;-81
2022/03/04 03:11:05;;;;;;;17.30;10.20;;;8.70;75.10;;;;;;5043550;28;20649;-81
2022/03/04 03:13:34;;;;;;;16.73;10.13;;;8.60;75.20;;;;;;5043692;28;20206;-81
2022/03/04 03:16:04;;;;;;;15.03;8.93;;;8.60;75.30;;;;;;5043231;28;20206;-82
2022/03/04 03:18:33;;;;;;;18.20;9.47;;;8.70;75.40;;;;;;5044767;28;20211;-81
2022/03/04 03:21:02;;;;;;;19.33;9.23;;;8.60;75.40;;;;;;5044001;28;20202;-82
2022/03/04 03:23:30;;;;;;;14.90;9.63;;;8.60;75.70;;;;;;5044147;28;20209;-81
2022/03/04 03:25:59;;;;;;;16.07;9.37;;;8.60;75.60;;;;;;5042360;28;20190;-82
2022/03/04 03:28:27;;;;;;;16.77;9.03;;;8.60;76.30;;;;;;5043704;28;20204;-81
2022/03/04 03:30:56;;;;;;;14.43;8.73;;;8.50;76.70;;;;;;5042811;28;20195;-80
2022/03/04 03:33:26;;;;;;;15.23;8.97;;;8.50;76.60;;;;;;5043983;28;20198;-83
2022/03/04 03:35:54;;;;;;;15.87;8.73;;;8.50;76.60;;;;;;5043976;28;20197;-80
2022/03/04 03:38:23;;;;;;;17.00;9.57;;;8.50;76.60;;;;;;5042573;28;20265;-82
2022/03/04 03:40:52;;;;;;;16.00;8.83;;;8.40;76.40;;;;;;5042131;28;20201;-81
2022/03/04 03:43:39;;;;;;;15.07;8.43;;;8.40;76.40;;;;;;5041565;28;20191;-80
2022/03/04 03:46:09;;;;;;;17.40;9.10;;;8.40;76.40;;;;;;5044413;28;20201;-82
2022/03/04 03:48:40;;;;;;;16.37;9.50;;;8.40;76.40;;;;;;5041227;28;20212;-81
2022/03/04 03:51:09;;;;;;;14.57;9.43;;;8.40;76.60;;;;;;5045366;28;20206;-81
2022/03/04 03:53:39;;;;;;;17.77;9.03;;;8.40;76.60;;;;;;5042193;28;20537;-82
2022/03/04 03:56:07;;;;;;;15.47;8.90;;;8.40;76.60;;;;;;5043610;28;20201;-81
2022/03/04 03:58:36;;;;;;;14.67;8.40;;;8.30;76.70;;;;;;5043350;28;20221;-81
2022/03/04 04:01:05;;;;;;;17.20;9.67;;;8.40;76.70;;;;;;5041031;28;20306;-80
2022/03/04 04:03:34;;;;;;;16.00;9.50;;;8.40;76.50;;;;;;5041956;28;20225;-83
2022/03/04 04:06:04;;;;;;;15.93;9.13;;;8.30;76.90;;;;;;5043313;28;20198;-81
2022/03/04 04:08:32;;;;;;;18.20;9.30;;;8.30;76.50;;;;;;5041796;28;20190;-83
2022/03/04 04:11:01;;;;;;;19.20;9.67;;;8.30;76.40;;;;;;5042050;28;20682;-83
2022/03/04 04:13:30;;;;;;;18.93;9.27;;;8.30;76.40;;;;;;5042128;28;20243;-83
2022/03/04 04:15:58;;;;;;;16.77;9.33;;;8.30;76.40;;;;;;5041347;28;20644;-81
2022/03/04 04:18:26;;;;;;;17.27;9.37;;;8.30;76.30;;;;;;5042109;28;20196;-81
2022/03/04 04:20:55;;;;;;;16.17;10.67;;;8.30;76.30;;;;;;5042193;28;20209;-83
2022/03/04 04:23:25;;;;;;;16.50;10.23;;;8.30;76.20;;;;;;5041329;28;20207;-82
2022/03/04 04:25:53;;;;;;;16.70;10.53;;;8.30;76.70;;;;;;5042315;28;20203;-81
2022/03/04 04:28:25;;;;;;;18.23;10.77;;;8.20;76.70;;;;;;5039517;28;21688;-82
2022/03/04 04:30:53;;;;;;;19.27;11.30;;;8.20;77.00;;;;;;5041516;28;20660;-79
2022/03/04 04:33:21;;;;;;;18.73;11.20;;;8.20;76.70;;;;;;5043242;28;21568;-80
2022/03/04 04:35:53;;;;;;;17.43;9.83;;;8.10;77.00;;;;;;5041237;28;20205;-80
2022/03/04 04:38:21;;;;;;;18.50;10.43;;;8.10;77.10;;;;;;5041136;28;20690;-82
2022/03/04 04:40:51;;;;;;;17.53;11.17;;;8.10;77.10;;;;;;5041425;28;20199;-81
2022/03/04 04:43:19;;;;;;;15.73;9.77;;;8.10;76.90;;;;;;5040735;28;20647;-82
2022/03/04 04:45:49;;;;;;;19.30;10.83;;;8.10;77.10;;;;;;5041834;28;20201;-81
2022/03/04 04:48:18;;;;;;;16.23;9.63;;;8.10;77.20;;;;;;5041988;28;20214;-81
2022/03/04 04:50:46;;;;;;;15.33;9.23;;;8.10;77.20;;;;;;5044045;28;20191;-82
2022/03/04 04:53:14;;;;;;;17.63;9.90;;;8.10;76.90;;;;;;5042914;28;20265;-79
2022/03/04 04:55:43;;;;;;;18.67;9.83;;;8.10;76.90;;;;;;5042905;28;20202;-81
2022/03/04 04:58:12;;;;;;;16.30;9.33;;;8.10;77.00;;;;;;5041563;28;20728;-82
2022/03/04 05:00:41;;;;;;;18.57;9.03;;;8.10;77.00;;;;;;5042660;28;20260;-82
2022/03/04 05:03:10;;;;;;;17.73;9.87;;;8.10;76.90;;;;;;5042938;28;20649;-81
2022/03/04 05:05:38;;;;;;;17.07;9.47;;;8.10;77.00;;;;;;5043208;28;20199;-82
2022/03/04 05:08:07;;;;;;;15.30;9.23;;;8.10;77.00;;;;;;5042264;28;20210;-81
2022/03/04 05:10:35;;;;;;;16.80;8.83;;;8.10;77.00;;;;;;5041974;28;20826;-81
2022/03/04 05:13:03;;;;;;;17.37;9.90;;;8.10;76.90;;;;;;5041568;28;20212;-82
2022/03/04 05:15:33;;;;;;;15.53;9.30;;;8.10;76.90;;;;;;5042098;28;20205;-81
2022/03/04 05:18:01;;;;;;;17.60;9.43;;;8.10;76.90;;;;;;5041872;28;20204;-82
2022/03/04 05:20:30;;;;;;;16.93;9.30;;;8.10;77.20;;;;;;5040174;28;20230;-80
2022/03/04 05:22:58;;;;;;;17.67;9.53;;;8.10;77.30;;;;;;5042762;28;20293;-82
2022/03/04 05:25:26;;;;;;;18.20;10.40;;;8.10;77.20;;;;;;5046287;28;20208;-81
2022/03/04 05:27:55;;;;;;;20.17;9.87;;;8.10;77.00;;;;;;5044908;28;20220;-81
2022/03/04 05:30:23;;;;;;;16.27;8.97;;;8.10;77.10;;;;;;5045718;28;20926;-82
2022/03/04 05:32:53;;;;;;;16.63;9.80;;;8.10;77.60;;;;;;5046363;28;20233;-80
2022/03/04 05:35:21;;;;;;;17.30;9.20;;;8.10;77.30;;;;;;5045787;28;20213;-81
2022/03/04 05:37:49;;;;;;;17.00;9.50;;;8.20;77.30;;;;;;5044997;28;20197;-81
2022/03/04 05:40:18;;;;;;;17.70;10.30;;;8.20;77.50;;;;;;5044225;28;20218;-81
2022/03/04 05:42:46;;;;;;;18.00;9.97;;;8.20;77.60;;;;;;5045158;28;20205;-83
2022/03/04 05:45:14;;;;;;;14.83;8.70;;;8.20;77.50;;;;;;5045338;28;20203;-82
2022/03/04 05:47:43;;;;;;;16.37;9.03;;;8.20;77.30;;;;;;5046440;28;20208;-81
2022/03/04 05:50:13;;;;;;;20.03;9.97;;;8.20;77.40;;;;;;5045903;28;20201;-80
2022/03/04 05:52:41;;;;;;;17.90;9.27;;;8.20;77.90;;;;;;5045707;28;20200;-81
2022/03/04 05:55:10;;;;;;;14.57;9.60;;;8.20;77.90;;;;;;5045073;28;20202;-81
2022/03/04 05:57:40;;;;;;;16.20;9.60;;;8.20;77.70;;;;;;5045514;28;20199;-82
2022/03/04 06:00:10;;;;;;;16.37;9.40;;;8.20;77.60;;;;;;5046588;28;20217;-81
2022/03/04 06:02:39;;;;;;;17.63;9.63;;;8.20;77.50;;;;;;5044676;28;20696;-82
2022/03/04 06:05:08;;;;;;;17.50;10.03;;;8.20;77.70;;;;;;5044927;28;20591;-81
2022/03/04 06:07:38;;;;;;;15.60;9.27;;;8.30;77.60;;;;;;5045831;28;20208;-82
2022/03/04 06:10:07;;;;;;;15.83;8.77;;;8.30;77.60;;;;;;5045139;28;20209;-80
2022/03/04 06:12:36;;;;;;;15.60;9.43;;;8.30;77.30;;;;;;5046626;28;20289;-80
2022/03/04 06:15:08;;;;;;;14.90;9.50;;;8.30;77.30;;;;;;5045857;28;20217;-81
2022/03/04 06:17:36;;;;;;;15.90;10.17;;;8.40;77.20;;;;;;5044773;28;20201;-79
2022/03/04 06:20:06;;;;;;;19.50;9.63;;;8.40;77.10;;;;;;5044424;28;20308;-82
2022/03/04 06:22:35;;;;;;;17.03;9.60;;;8.40;76.90;;;;;;5044046;28;20207;-81
2022/03/04 06:25:05;;;;;;;19.75;11.27;;;8.40;76.90;;;;;;5042959;28;20441;-80
2022/03/04 06:27:34;;;;;;;17.30;9.47;;;8.40;77.20;;;;;;5044945;28;20213;-82
2022/03/04 06:30:02;;;;;;;15.57;10.50;;;8.40;77.30;;;;;;5043667;28;20209;-81
2022/03/04 06:32:33;;;;;;;14.90;8.50;;;8.50;77.00;;;;;;5024038;28;20578;-79
2022/03/04 06:35:01;;;;;;;18.77;10.13;;;8.50;76.80;;;;;;5041104;28;20778;-80
2022/03/04 06:37:30;;;;;;;17.43;9.37;;;8.50;76.40;;;;;;5045350;28;20205;-82
2022/03/04 06:39:58;;;;;;;15.60;8.87;;;8.50;76.40;;;;;;5045055;28;20667;-80
2022/03/04 06:42:28;;;;;;;16.42;10.60;;;8.60;76.30;;;;;;5041203;28;20961;-80
2022/03/04 06:44:56;;;;;;;14.23;9.30;;;8.60;76.60;;;;;;5043989;28;20213;-80
2022/03/04 06:47:28;;;;;;;18.80;8.67;;;8.60;76.40;;;;;;5044468;28;20199;-80
2022/03/04 06:49:57;;;;;;;16.23;9.63;;;8.70;76.10;;;;;;5043006;28;20187;-79
2022/03/04 06:52:25;;;;;;;16.17;8.77;;;8.70;76.00;;;;;;5042959;28;20257;-81
2022/03/04 06:54:53;;;;;;;15.20;9.13;;;8.70;75.80;;;;;;5043806;28;20199;-81
2022/03/04 06:57:22;;;;;;;13.53;8.77;;;8.80;75.70;;;;;;5044701;28;20203;-81
2022/03/04 06:59:51;;;;;;;14.23;8.83;;;8.80;75.50;;;;;;5043390;28;20253;-79
2022/03/04 07:02:20;;;;;;;16.07;9.63;;;8.90;75.30;;;;;;5043663;28;20223;-80
2022/03/04 07:04:50;;;;;;;21.37;9.70;;;8.90;75.00;;;;;;5043239;28;20225;-80
2022/03/04 07:07:18;;;;;;;15.80;9.23;;;9.00;75.10;;;;;;5043089;28;20292;-80
2022/03/04 07:09:46;;;;;;;16.37;10.03;;;9.00;74.90;;;;;;5042741;28;20670;-81
2022/03/04 07:12:14;;;;;;;16.43;10.00;;;9.10;74.90;;;;;;5041920;28;20203;-80
2022/03/04 07:14:44;;;;;;;16.40;10.00;;;9.20;74.90;;;;;;5043654;28;20507;-78
2022/03/04 07:17:17;;;;;;;28.23;9.60;;;9.20;74.90;;;;;;5044213;28;20584;-81
2022/03/04 07:19:48;;;;;;;16.17;9.30;;;9.30;74.80;;;;;;5042715;28;20203;-80
2022/03/04 07:22:16;;;;;;;15.77;9.83;;;9.40;74.70;;;;;;5056633;28;20203;-81
2022/03/04 07:24:45;;;;;;;16.30;9.70;;;9.40;74.60;;;;;;5043581;28;20870;-80
2022/03/04 07:27:13;;;;;;;17.07;9.67;;;9.50;74.40;;;;;;5043589;28;20199;-80
2022/03/04 07:29:42;;;;;;;16.00;9.33;;;9.60;74.30;;;;;;5042985;28;20286;-81
2022/03/04 07:32:10;;;;;;;15.50;9.63;;;9.70;74.10;;;;;;5044067;28;20222;-81
2022/03/04 07:34:40;;;;;;;19.97;9.77;;;9.80;73.70;;;;;;5044056;28;20226;-80
2022/03/04 07:37:11;;;;;;;15.67;9.27;;;9.80;73.30;;;;;;5042898;28;20190;-83
2022/03/04 07:39:39;;;;;;;19.27;10.17;;;9.90;73.30;;;;;;5041942;28;20278;-83
2022/03/04 07:42:08;;;;;;;19.30;10.63;;;9.90;73.10;;;;;;5043026;28;20226;-82
2022/03/04 07:44:36;;;;;;;18.80;10.60;;;10.00;73.00;;;;;;5042901;28;20206;-81
2022/03/04 07:47:05;;;;;;;19.23;10.00;;;10.00;73.20;;;;;;5043503;28;20234;-83
2022/03/04 07:49:33;;;;;;;17.37;9.80;;;10.10;73.00;;;;;;5043681;28;20263;-82
2022/03/04 07:52:03;;;;;;;18.63;9.70;;;10.10;72.70;;;;;;5043534;28;20203;-80
2022/03/04 07:54:32;;;;;;;20.57;10.40;;;10.10;72.60;;;;;;5042491;28;20199;-80
2022/03/04 07:57:00;;;;;;;16.10;9.20;;;10.20;72.50;;;;;;5042027;28;20206;-81
2022/03/04 07:59:28;;;;;;;19.50;9.67;;;10.20;72.20;;;;;;5041653;28;20206;-81
2022/03/04 08:01:57;;;;;;;13.93;9.17;;;10.30;72.10;;;;;;5042195;28;20214;-78
2022/03/04 08:04:26;;;;;;;16.17;9.03;;;10.40;71.70;;;;;;5043655;28;20203;-80
2022/03/04 08:06:55;;;;;;;15.53;9.63;;;10.40;71.70;;;;;;5022318;28;20604;-82
2022/03/04 08:09:25;;;;;;;20.90;10.60;;;10.50;72.00;;;;;;5043937;28;20203;-81
2022/03/04 08:11:53;;;;;;;20.40;9.87;;;10.50;71.60;;;;;;5042752;28;20198;-81
2022/03/04 08:14:21;;;;;;;15.60;9.73;;;10.60;71.60;;;;;;5043633;28;20206;-81
2022/03/04 08:16:50;;;;;;;16.17;10.67;;;10.60;71.10;;;;;;5043415;28;20832;-82
2022/03/04 08:19:18;;;;;;;19.60;10.50;;;10.60;70.70;;;;;;5042995;28;20267;-80
2022/03/04 08:21:47;;;;;;;17.00;10.50;;;10.70;70.80;;;;;;5042629;28;20326;-79
2022/03/04 08:24:20;;;;;;;17.63;10.23;;;10.70;70.70;;;;;;5042714;28;20265;-81
2022/03/04 08:26:50;;;;;;;18.83;10.23;;;10.70;70.40;;;;;;5042086;28;20202;-81
2022/03/04 08:29:18;;;;;;;20.45;10.95;;;10.70;70.10;;;;;;5041791;28;20447;-78
2022/03/04 08:31:47;;;;;;;17.57;10.43;;;10.70;70.40;;;;;;5041822;28;20203;-78
2022/03/04 08:34:17;;;;;;;20.80;11.60;;;10.70;70.50;;;;;;5042372;28;20205;-80
2022/03/04 08:36:45;;;;;;;19.70;12.40;;;10.70;70.50;;;;;;5041982;28;20229;-80
2022/03/04 08:39:14;;;;;;;17.93;10.17;;;10.70;70.00;;;;;;5042848;28;20628;-81
2022/03/04 08:41:42;;;;;;;16.63;10.40;;;10.80;69.90;;;;;;5040603;28;20215;-79
2022/03/04 08:44:12;;;;;;;17.47;11.00;;;10.80;69.70;;;;;;5041743;28;20288;-79
2022/03/04 08:46:41;;;;;;;18.20;10.20;;;10.80;69.80;;;;;;5042376;28;20198;-79
2022/03/04 08:49:10;;;;;;;17.83;9.70;;;10.80;69.50;;;;;;5042500;28;20206;-81
2022/03/04 08:51:38;;;;;;;19.30;10.90;;;10.80;69.70;;;;;;5043686;28;20202;-80
2022/03/04 08:54:07;;;;;;;15.30;9.97;;;10.80;69.80;;;;;;5041060;28;20230;-79
2022/03/04 08:56:36;;;;;;;17.53;10.67;;;10.80;69.70;;;;;;5042115;28;20192;-81
2022/03/04 08:59:15;;;;;;;17.13;10.47;;;10.90;69.80;;;;;;5046216;28;20645;-84
2022/03/04 09:01:45;;;;;;;17.73;11.33;;;10.90;69.90;;;;;;5053917;28;20280;-80
2022/03/04 09:04:17;;;;;;;24.17;10.80;;;10.90;69.90;;;;;;5045030;28;20191;-80
2022/03/04 09:06:45;;;;;;;16.23;10.37;;;10.90;70.00;;;;;;5044983;28;20282;-80
2022/03/04 09:09:14;;;;;;;15.87;10.30;;;11.00;70.10;;;;;;5046221;28;20207;-81
2022/03/04 09:11:43;;;;;;;16.57;10.53;;;11.00;70.20;;;;;;5044944;28;20191;-83
2022/03/04 09:14:11;;;;;;;16.37;10.23;;;11.10;70.30;;;;;;5045993;28;20201;-81
2022/03/04 09:16:40;;;;;;;21.17;10.30;;;11.10;70.10;;;;;;5046981;28;20202;-81
2022/03/04 09:19:09;;;;;;;16.73;10.33;;;11.10;69.60;;;;;;5048435;28;20714;-81
2022/03/04 09:21:38;;;;;;;15.30;9.07;;;11.10;69.50;;;;;;5047099;28;20218;-80
2022/03/04 09:24:07;;;;;;;19.37;10.73;;;11.20;69.50;;;;;;5045872;28;20331;-81
2022/03/04 09:26:35;;;;;;;16.73;9.83;;;11.10;69.30;;;;;;5047839;28;20195;-82
2022/03/04 09:29:29;;;;;;;14.03;8.93;;;11.10;69.30;;;;;;5047540;28;20329;-81
2022/03/04 09:32:10;;;;;;;15.03;8.87;;;11.10;69.10;;;;;;5046131;28;20199;-80
2022/03/04 09:34:40;;;;;;;15.77;9.77;;;11.10;69.20;;;;;;5044912;28;20870;-80
2022/03/04 09:37:08;;;;;;;14.30;8.77;;;11.10;69.30;;;;;;5046544;28;20207;-81
2022/03/04 09:39:37;;;;;;;15.77;8.93;;;11.20;69.30;;;;;;5043896;28;20203;-80
2022/03/04 09:42:05;;;;;;;16.03;9.10;;;11.20;69.40;;;;;;5045687;28;20214;-81
2022/03/04 09:44:34;;;;;;;15.90;8.77;;;11.20;69.30;;;;;;5045438;28;20704;-80
2022/03/04 09:47:03;;;;;;;13.97;9.00;;;11.20;69.40;;;;;;5045931;28;20580;-81
2022/03/04 09:49:34;;;;;;;16.30;9.83;;;11.30;69.40;;;;;;5045933;28;20260;-82
2022/03/04 09:52:05;;;;;;;17.37;9.70;;;11.30;69.30;;;;;;5046590;28;20194;-80
2022/03/04 09:54:34;;;;;;;16.50;9.60;;;11.40;69.10;;;;;;5044749;28;20206;-82
2022/03/04 09:57:02;;;;;;;17.47;11.13;;;11.50;69.20;;;;;;5045357;28;20210;-80
2022/03/04 09:59:30;;;;;;;13.93;8.97;;;11.50;69.00;;;;;;5044260;28;20195;-81
2022/03/04 10:01:59;;;;;;;17.00;9.60;;;11.60;68.70;;;;;;5044849;28;20215;-80
2022/03/04 10:04:28;;;;;;;14.97;9.83;;;11.70;68.90;;;;;;5046619;28;20187;-79
2022/03/04 10:06:57;;;;;;;16.57;9.47;;;11.70;69.00;;;;;;5045810;28;20616;-80
2022/03/04 10:09:43;;;;;;;15.27;8.57;;;11.90;68.80;;;;;;5044616;28;20207;-79
2022/03/04 10:12:12;;;;;;;16.33;9.57;;;12.00;68.90;;;;;;5044737;28;20201;-79
2022/03/04 10:15:01;;;;;;;17.53;9.63;;;12.10;68.80;;;;;;5044359;28;20202;-81
2022/03/04 10:17:32;;;;;;;15.90;10.80;;;12.20;68.50;;;;;;5046181;28;20186;-80
2022/03/04 10:20:04;;;;;;;13.93;9.23;;;12.30;67.30;;;;;;5044852;28;20210;-80
2022/03/04 10:22:42;;;;;;;14.97;9.00;;;12.40;67.50;;;;;;5045317;28;20206;-78
2022/03/04 10:25:22;;;;;;;18.13;10.07;;;12.50;66.90;;;;;;5044279;28;20703;-78
2022/03/04 10:27:51;;;;;;;16.97;9.73;;;12.50;66.70;;;;;;5044746;28;20948;-78
2022/03/04 10:30:30;;;;;;;18.83;9.00;;;12.50;66.00;;;;;;5044444;28;20199;-81
2022/03/04 10:33:07;;;;;;;15.27;10.17;;;12.60;66.30;;;;;;5046593;28;20195;-79
2022/03/04 10:35:35;;;;;;;17.93;10.13;;;12.60;65.80;;;;;;5044884;28;20285;-80
2022/03/04 10:38:04;;;;;;;15.50;9.30;;;12.70;65.80;;;;;;5045716;28;20203;-79
2022/03/04 10:40:42;;;;;;;17.93;10.80;;;12.70;65.90;;;;;;5045081;28;20248;-79
2022/03/04 10:43:12;;;;;;;15.93;9.53;;;12.80;65.50;;;;;;5043325;28;20875;-78
2022/03/04 10:45:41;;;;;;;17.27;11.50;;;12.80;65.30;;;;;;5044282;28;20228;-78
2022/03/04 10:48:12;;;;;;;16.67;10.67;;;12.90;65.20;;;;;;5046212;28;20199;-80
2022/03/04 10:50:42;;;;;;;15.40;10.43;;;12.90;64.30;;;;;;5043275;28;20286;-79
2022/03/04 10:53:12;;;;;;;15.50;10.03;;;12.90;64.10;;;;;;5043907;28;20187;-79
2022/03/04 10:55:44;;;;;;;19.17;11.00;;;13.00;64.30;;;;;;5044024;28;20199;-78
2022/03/04 10:58:17;;;;;;;17.03;11.20;;;13.00;64.00;;;;;;5045280;28;20187;-79
2022/03/04 11:00:48;;;;;;;19.50;11.00;;;13.10;64.20;;;;;;5046031;28;20357;-79
2022/03/04 11:03:19;;;;;;;17.63;10.30;;;13.20;64.00;;;;;;5046133;28;20258;-81
2022/03/04 11:06:03;;;;;;;17.77;10.77;;;13.30;63.60;;;;;;5045770;28;20183;-82
2022/03/04 11:12:54;;;;;;;15.30;10.10;;;13.50;62.50;;;;;;5045839;28;20198;-78
2022/03/04 11:15:24;;;;;;;16.27;9.67;;;13.60;61.80;;;;;;5043620;28;20564;-77
2022/03/04 11:17:53;;;;;;;15.77;9.93;;;13.60;61.70;;;;;;5043805;28;20195;-78
2022/03/04 11:20:21;;;;;;;14.50;9.53;;;13.80;61.60;;;;;;5045145;28;20209;-77
2022/03/04 11:22:53;;;;;;;16.90;10.13;;;13.90;60.90;;;;;;5044257;28;20211;-77
2022/03/04 11:25:23;;;;;;;16.30;10.10;;;14.00;60.50;;;;;;5043573;28;20202;-76
2022/03/04 11:27:55;;;;;;;14.30;9.40;;;14.10;59.30;;;;;;5044786;28;20214;-78
2022/03/04 11:30:32;;;;;;;17.13;10.17;;;14.20;58.40;;;;;;5045665;28;20199;-79
2022/03/04 11:33:05;;;;;;;18.20;10.70;;;14.20;58.70;;;;;;5044644;28;20195;-79
2022/03/04 11:35:51;;;;;;;12.90;9.23;;;14.20;59.00;;;;;;5045032;28;20202;-77
2022/03/04 11:38:54;;;;;;;15.70;9.83;;;14.20;58.80;;;;;;5037557;28;20199;-79
2022/03/04 11:41:26;;;;;;;16.43;10.53;;;14.20;59.80;;;;;;5026149;28;20203;-79
2022/03/04 11:43:58;;;;;;;15.47;9.90;;;14.30;59.10;;;;;;5044865;28;20238;-78
2022/03/04 11:46:28;;;;;;;14.73;9.53;;;14.30;59.00;;;;;;5042350;28;20281;-77
2022/03/04 11:49:29;;;;;;;14.10;9.10;;;14.30;59.00;;;;;;5043915;28;20219;-77
2022/03/04 11:52:24;;;;;;;14.27;9.20;;;14.40;59.20;;;;;;5043306;28;20190;-77
2022/03/04 11:55:23;;;;;;;16.40;10.50;;;14.50;58.30;;;;;;5041193;28;20206;-77
2022/03/04 11:58:00;;;;;;;14.63;9.80;;;14.50;58.40;;;;;;5042578;28;20245;-76
2022/03/04 12:00:33;;;;;;;16.07;10.20;;;14.60;58.20;;;;;;5042137;28;20284;-79
2022/03/04 12:03:21;;;;;;;15.27;9.73;;;14.70;58.40;;;;;;5044731;28;21620;-77
2022/03/04 12:05:52;;;;;;;13.70;9.53;;;14.70;58.60;;;;;;5041846;28;20299;-76
2022/03/04 12:08:20;;;;;;;14.07;9.10;;;14.70;58.40;;;;;;5041693;28;20671;-77
2022/03/04 12:10:55;;;;;;;14.50;9.40;;;14.70;58.00;;;;;;5042113;28;20210;-78
2022/03/04 12:13:27;;;;;;;15.67;9.43;;;14.70;58.30;;;;;;5041853;28;20675;-78
2022/03/04 12:16:05;;;;;;;15.50;9.80;;;14.70;58.20;;;;;;5043608;28;20198;-77
2022/03/04 12:18:43;;;;;;;14.03;9.20;;;14.70;58.00;;;;;;5044477;28;20199;-77
2022/03/04 12:21:16;;;;;;;15.13;9.80;;;14.80;57.60;;;;;;5042639;28;20209;-76
2022/03/04 12:23:51;;;;;;;18.23;9.60;;;14.90;57.50;;;;;;5042732;28;20826;-76
2022/03/04 12:26:40;;;;;;;13.50;8.93;;;14.90;57.20;;;;;;5042655;28;20206;-77
2022/03/04 12:29:10;;;;;;;15.03;9.23;;;14.90;56.50;;;;;;5044150;28;20211;-77
2022/03/04 12:31:44;;;;;;;14.57;9.17;;;14.80;56.00;;;;;;5042679;28;20206;-78
2022/03/04 12:34:20;;;;;;;13.73;9.27;;;14.80;56.60;;;;;;5045652;28;20332;-77
2022/03/04 12:36:53;;;;;;;18.33;10.37;;;14.80;56.90;;;;;;5045032;28;20197;-78
2022/03/04 12:39:23;;;;;;;14.63;9.87;;;14.80;56.90;;;;;;5044261;28;20208;-77
2022/03/04 12:41:56;;;;;;;20.30;9.73;;;14.80;56.90;;;;;;5045884;28;20198;-77
2022/03/04 12:44:27;;;;;;;14.00;9.10;;;14.80;56.90;;;;;;5046811;28;20213;-76
2022/03/04 12:46:58;;;;;;;13.60;8.73;;;14.70;56.00;;;;;;5049408;28;20190;-77
2022/03/04 12:49:29;;;;;;;14.13;8.97;;;14.60;56.30;;;;;;5052698;28;20719;-77
2022/03/04 12:51:58;;;;;;;17.37;9.90;;;14.50;56.70;;;;;;5047503;28;20248;-77
2022/03/04 12:54:31;;;;;;;16.67;9.90;;;14.50;56.60;;;;;;5046489;28;20194;-78
2022/03/04 12:57:05;;;;;;;17.67;9.60;;;14.50;56.70;;;;;;5046664;28;20328;-77
2022/03/04 12:59:44;;;;;;;15.47;9.23;;;14.50;57.00;;;;;;5046686;28;20570;-77
2022/03/04 13:02:14;;;;;;;18.00;10.23;;;14.50;57.20;;;;;;5047080;28;20226;-78